Latest Weather Observations for Griffith

IDN60801

Issued at 5:33 pm EDT Friday 19 December 2014 (issued every 30 minutes, with the page automatically refreshed every 10 minutes)

About weather observations | Map of weather stations | Latest weather observations for NSW | Other Formats
Station Details ID: 075041 Name: GRIFFITH AIRPORT AWS Lat: -34.25 Lon: 146.07 Height: 134.0 m
Data from the previous 72 hours. | See also: Recent months at Griffith
Date/Time
EDT
Temp
°C
App
Temp
°C
Dew
Point
Rel
Hum
%
Delta-T
°C
Wind Press
QNH
hPa
Press
MSL
hPa
Rain
since 9 am
mm
Dir
 
Spd
km/h
Gust
km/h
Spd
kts
Gust
kts
19/05:30pm 25.7 19.0 -1.2 17 12.2 SW 24 37 13 20 1014.4 1013.9 0.0
19/05:00pm 25.2 17.0 -0.8 18 11.9 SW 32 43 17 23 1014.5 1014.0 0.0
19/04:35pm 25.5 18.4 -1.3 17 12.2 SW 26 46 14 25 1014.5 1014.0 0.0
19/04:30pm 25.9 19.6 -1.0 17 12.3 SW 22 37 12 20 1014.5 1014.0 0.0
19/04:00pm 25.4 18.4 -0.6 18 11.9 WSW 26 39 14 21 1014.8 1014.3 0.0
19/03:30pm 24.2 17.1 -1.6 18 11.5 SW 26 35 14 19 1015.0 1014.5 0.0
19/03:00pm 24.6 17.6 -0.5 19 11.5 SSW 26 35 14 19 1015.2 1014.7 0.0
19/02:30pm 23.9 16.8 -1.1 19 11.2 SSW 26 41 14 22 1015.3 1014.8 0.0
19/02:00pm 23.2 17.5 -1.0 20 10.8 SW 19 32 10 17 1015.8 1015.2 0.0
19/01:30pm 22.4 15.3 -1.0 21 10.4 WSW 26 43 14 23 1016.0 1015.4 0.0
19/01:26pm 24.0 18.4 -0.3 20 11.1 WSW 19 41 10 22 1015.9 1015.3 0.0
19/01:00pm 22.0 17.7 1.1 25 9.6 SW 13 28 7 15 1016.1 1015.5 0.0
19/12:30pm 21.1 15.1 0.9 26 9.2 S 22 32 12 17 1016.4 1015.8 0.0
19/12:00pm 21.2 15.6 1.5 27 9.1 SW 20 32 11 17 1016.4 1015.8 0.0
19/11:50am 21.1 14.8 1.4 27 9.1 SW 24 37 13 20 1016.3 1015.7 0.0
19/11:30am 19.7 14.1 1.2 29 8.4 SW 20 35 11 19 1016.4 1015.8 0.0
19/11:00am 20.7 14.6 2.5 30 8.5 SW 24 33 13 18 1016.4 1015.8 0.0
19/10:30am 20.3 15.0 3.1 32 8.2 SSW 20 30 11 16 1016.6 1016.0 0.0
19/10:00am 18.8 13.4 2.6 34 7.5 SSW 20 33 11 18 1016.6 1016.0 0.0
19/09:30am 18.6 13.0 3.6 37 7.1 S 22 30 12 16 1016.6 1016.0 0.0
19/09:00am 17.4 11.5 3.7 40 6.4 S 24 32 13 17 1016.4 1015.8 0.0
19/08:30am 17.3 12.7 6.5 49 5.4 SSW 20 26 11 14 1016.1 1015.5 0.0
19/08:00am 16.1 11.2 7.1 55 4.5 SSW 22 28 12 15 1015.6 1015.1 0.0
19/07:30am 15.3 11.1 7.3 59 4.0 SSW 19 26 10 14 1015.1 1014.6 0.0
19/07:00am 14.5 10.1 7.3 62 3.6 SSW 20 28 11 15 1014.8 1014.3 0.0
19/06:30am 13.9 10.1 7.4 65 3.2 SSW 17 22 9 12 1014.5 1014.0 0.0
19/06:00am 13.7 10.2 7.2 65 3.2 SSW 15 20 8 11 1014.2 1013.7 0.0
19/05:30am 14.2 10.7 7.3 63 3.4 SSW 15 20 8 11 1013.9 1013.4 0.0
19/05:00am 14.6 11.5 7.2 61 3.7 SSW 13 17 7 9 1013.4 1012.9 0.0
19/04:30am 15.1 12.0 7.4 60 3.8 S 13 20 7 11 1012.9 1012.3 0.0
19/04:00am 15.6 11.8 7.6 59 4.0 S 17 22 9 12 1012.7 1012.1 0.0
19/03:30am 16.4 12.9 7.3 55 4.6 S 15 19 8 10 1012.4 1011.8 0.0
19/03:00am 17.1 13.2 7.2 52 5.0 SSW 17 24 9 13 1012.4 1011.8 0.0
19/02:30am 17.6 13.7 7.1 50 5.3 SSW 17 22 9 12 1012.1 1011.5 0.0
19/02:00am 18.0 14.5 7.4 50 5.4 SSW 15 20 8 11 1012.1 1011.5 0.0
19/01:30am 18.6 14.4 7.4 48 5.7 S 19 24 10 13 1011.9 1011.3 0.0
19/01:00am 19.2 15.0 7.3 46 6.1 S 19 26 10 14 1011.8 1011.2 0.0
19/12:30am 19.9 15.4 7.0 43 6.6 S 20 28 11 15 1011.7 1011.1 0.0
19/12:00am 20.7 15.3 6.3 39 7.3 S 24 32 13 17 1011.5 1010.9 0.0
 
Date/Time
EDT
Temp
°C
App
Temp
°C
Dew
Point
Rel
Hum
%
Delta-T
°C
Wind Press
QNH
hPa
Press
MSL
hPa
Rain
since 9 am
mm
Dir
 
Spd
km/h
Gust
km/h
Spd
kts
Gust
kts
18/11:30pm 21.6 14.4 5.9 36 7.9 SSW 33 50 18 27 1011.3 1010.7 0.0
18/11:15pm 22.0 14.9 5.4 34 8.3 SW 32 50 17 27 1011.2 1010.6 0.0
18/11:00pm 22.2 16.6 5.6 34 8.4 SSW 24 37 13 20 1010.9 1010.3 0.0
18/10:30pm 22.6 17.0 3.7 29 9.2 SSW 22 32 12 17 1010.6 1010.0 0.0
18/10:00pm 23.4 17.6 2.3 25 10.1 SW 22 32 12 17 1010.2 1009.6 0.0
18/09:30pm 24.1 17.9 2.3 24 10.5 SW 24 35 13 19 1009.9 1009.3 0.0
18/09:00pm 24.7 17.1 2.8 24 10.7 SW 32 39 17 21 1009.4 1008.8 0.0
18/08:30pm 25.5 17.2 2.2 22 11.3 SW 35 43 19 23 1008.9 1008.3 0.0
18/08:00pm 26.7 18.5 2.6 21 11.9 SW 35 44 19 24 1008.3 1007.7 0.0
18/07:30pm 28.0 19.0 2.2 19 12.7 SW 39 48 21 26 1007.5 1007.0 0.0
18/07:00pm 29.5 20.9 0.2 15 14.1 WSW 35 50 19 27 1006.8 1006.3 0.0
18/06:30pm 30.3 20.7 -1.2 13 14.9 WSW 39 52 21 28 1006.3 1005.7 0.0
18/06:28pm 30.3 20.7 -1.2 13 14.9 WSW 39 52 21 28 1006.4 1005.8 0.0
18/06:16pm 30.4 21.2 -1.1 13 14.9 W 37 54 20 29 1006.1 1005.5 0.0
18/06:12pm 30.4 21.1 -2.2 12 15.1 W 37 54 20 29 1006.1 1005.5 0.0
18/06:00pm 30.8 22.3 -1.9 12 15.3 W 33 52 18 28 1005.9 1005.3 0.0
18/05:30pm 31.3 22.7 -2.6 11 15.7 W 33 54 18 29 1005.7 1005.1 0.0
18/05:19pm 31.3 23.3 -2.6 11 15.7 W 30 48 16 26 1005.8 1005.2 0.0
18/05:00pm 31.4 22.0 -2.6 11 15.8 W 37 48 20 26 1005.8 1005.2 0.0
18/04:30pm 31.7 23.3 -2.3 11 15.9 W 32 54 17 29 1005.9 1005.3 0.0
18/04:11pm 31.5 22.9 -2.5 11 15.8 W 33 54 18 29 1006.1 1005.5 0.0
18/04:00pm 31.0 22.5 -2.9 11 15.6 W 32 48 17 26 1006.2 1005.6 0.0
18/03:54pm 31.0 22.5 -2.9 11 15.6 W 32 48 17 26 1006.2 1005.6 0.0
18/03:42pm 31.9 23.3 -2.2 11 16.0 W 33 48 18 26 1006.3 1005.7 0.0
18/03:36pm 31.0 23.5 -1.7 12 15.4 WNW 28 46 15 25 1006.2 1005.6 0.0
18/03:30pm 30.9 22.2 -3.0 11 15.6 W 33 48 18 26 1006.4 1005.8 0.0
18/03:28pm 31.1 22.1 -2.8 11 15.6 W 35 54 19 29 1006.4 1005.8 0.0
18/03:18pm 31.8 22.9 -2.3 11 16.0 W 35 50 19 27 1006.5 1005.9 0.0
18/03:09pm 31.1 22.7 -2.8 11 15.6 W 32 46 17 25 1006.5 1005.9 0.0
18/03:05pm 31.0 21.8 -4.1 10 15.8 W 35 46 19 25 1006.5 1005.9 0.0
18/03:00pm 31.3 22.9 -2.6 11 15.8 W 32 46 17 25 1006.4 1005.8 0.0
18/02:31pm 30.8 22.0 -4.3 10 15.7 WSW 33 54 18 29 1006.6 1006.0 0.0
18/02:30pm 30.8 22.2 -4.3 10 15.7 W 32 46 17 25 1006.6 1006.0 0.0
18/02:00pm 30.8 21.5 -5.7 9 16.0 WSW 35 52 19 28 1006.8 1006.3 0.0
18/01:30pm 31.0 22.8 -4.1 10 15.8 W 30 50 16 27 1007.2 1006.7 0.0
18/01:27pm 31.1 23.3 -4.1 10 15.9 W 28 50 15 27 1007.0 1006.5 0.0
18/01:00pm 30.2 21.7 -3.5 11 15.3 W 32 44 17 24 1007.3 1006.8 0.0
18/12:40pm 30.4 22.3 -3.3 11 15.3 WSW 30 50 16 27 1007.4 1006.9 0.0
18/12:30pm 29.5 22.6 -2.9 12 14.7 WSW 24 37 13 20 1007.4 1006.9 0.0
18/12:00pm 29.3 23.1 -3.0 12 14.7 W 20 32 11 17 1007.4 1006.9 0.0
18/11:30am 29.0 22.5 -2.2 13 14.3 W 22 32 12 17 1007.6 1007.1 0.0
18/11:00am 27.5 21.5 -1.4 15 13.3 WNW 20 32 11 17 1007.8 1007.3 0.0
18/10:30am 27.1 21.0 -2.7 14 13.4 W 20 33 11 18 1008.1 1007.5 0.0
18/10:00am 26.2 21.5 -1.6 16 12.6 W 13 24 7 13 1008.1 1007.5 0.0
18/09:30am 25.0 20.8 -0.9 18 11.8 NW 11 19 6 10 1008.4 1007.8 0.0
18/09:00am 24.6 21.5 1.5 22 11.0 N 7 13 4 7 1008.4 1007.8 0.0
18/08:30am 23.3 19.1 -0.9 20 10.9 ENE 11 15 6 8 1008.2 1007.6 0.0
18/08:00am 21.8 17.7 -0.2 23 9.9 ENE 11 15 6 8 1007.7 1007.2 0.0
18/07:30am 17.7 16.0 1.7 34 7.2 CALM 0 0 0 0 1007.6 1007.1 0.0
18/07:00am 15.5 13.7 0.9 37 6.4 CALM 0 0 0 0 1007.6 1007.1 0.0
18/06:30am 13.1 11.2 0.8 43 5.2 CALM 0 0 0 0 1007.5 1007.0 0.0
18/06:00am 11.9 9.9 -0.3 43 5.0 CALM 0 0 0 0 1007.3 1006.8 0.0
18/05:30am 12.7 10.8 0.5 43 5.1 CALM 0 0 0 0 1007.2 1006.7 0.0
18/05:00am 12.8 10.8 -0.1 41 5.4 CALM 0 0 0 0 1006.8 1006.3 0.0
18/04:30am 13.5 11.5 -0.2 39 5.7 CALM 0 0 0 0 1006.5 1005.9 0.0
18/04:00am 13.5 11.5 -0.2 39 5.7 CALM 0 0 0 0 1006.3 1005.7 0.0
18/03:30am 13.8 11.8 0.1 39 5.8 CALM 0 0 0 0 1006.3 1005.7 0.0
18/03:00am 13.0 11.0 0.1 41 5.4 CALM 0 0 0 0 1006.2 1005.6 0.0
18/02:30am 13.6 11.6 -0.1 39 5.7 CALM 0 0 0 0 1006.2 1005.6 0.0
18/02:00am 14.4 12.4 -0.1 37 6.1 CALM 0 0 0 0 1006.3 1005.7 0.0
18/01:30am 15.2 13.2 0.2 36 6.4 CALM 0 0 0 0 1006.7 1006.1 0.0
18/01:00am 15.6 13.5 -0.6 33 6.9 CALM 0 0 0 0 1006.6 1006.0 0.0
18/12:30am 16.5 14.5 -0.2 32 7.2 CALM 0 0 0 0 1007.0 1006.5 0.0
18/12:00am 17.0 14.9 -1.1 29 7.7 CALM 0 0 0 0 1006.7 1006.1 0.0
 
Date/Time
EDT
Temp
°C
App
Temp
°C
Dew
Point
Rel
Hum
%
Delta-T
°C
Wind Press
QNH
hPa
Press
MSL
hPa
Rain
since 9 am
mm
Dir
 
Spd
km/h
Gust
km/h
Spd
kts
Gust
kts
17/11:30pm 17.8 14.3 -1.4 27 8.1 S 7 9 4 5 1006.6 1006.0 0.0
17/11:00pm 19.0 14.7 -1.4 25 8.8 SSE 11 13 6 7 1006.5 1005.9 0.0
17/10:30pm 18.3 14.8 -1.5 26 8.4 SSW 7 9 4 5 1006.9 1006.4 0.0
17/10:00pm 19.1 15.9 -0.8 26 8.7 S 6 7 3 4 1006.9 1006.4 0.0
17/09:30pm 19.3 16.0 -1.2 25 8.8 SSW 6 6 3 3 1006.8 1006.3 0.0
17/09:00pm 21.2 17.8 -2.0 21 10.0 SSW 6 7 3 4 1006.9 1006.4 0.0
17/08:30pm 23.5 19.9 -2.2 18 11.3 SW 7 9 4 5 1006.6 1006.0 0.0
17/08:00pm 24.5 20.0 -2.9 16 12.0 WSW 11 15 6 8 1006.4 1005.8 0.0
17/07:30pm 25.4 20.9 -3.1 15 12.5 W 11 17 6 9 1005.8 1005.2 0.0
17/07:00pm 26.4 21.4 -4.2 13 13.3 SW 13 19 7 10 1005.6 1005.0 0.0
17/06:30pm 26.6 21.6 -4.0 13 13.3 WSW 13 22 7 12 1005.2 1004.6 0.0
17/06:00pm 26.4 21.9 -3.2 14 13.1 WNW 11 19 6 10 1005.3 1004.7 0.0
17/05:30pm 26.5 21.9 -4.1 13 13.3 WSW 11 17 6 9 1005.5 1004.9 0.0
17/05:00pm 26.4 21.5 -3.2 14 13.1 WSW 13 26 7 14 1005.7 1005.1 0.0
17/04:30pm 26.2 20.5 -3.4 14 13.0 SSW 17 24 9 13 1006.0 1005.4 0.0
17/04:00pm 26.2 20.9 -3.4 14 13.0 SW 15 26 8 14 1006.3 1005.7 0.0
17/03:30pm 26.6 21.4 -3.1 14 13.2 SSW 15 22 8 12 1006.4 1005.8 0.0
17/03:00pm 26.3 20.9 -1.5 16 12.7 W 17 26 9 14 1006.8 1006.3 0.0
17/02:30pm 24.6 19.8 -2.9 16 12.0 WSW 13 28 7 15 1007.0 1006.5 0.0
17/02:00pm 25.0 19.3 -0.9 18 11.8 SSW 19 28 10 15 1007.2 1006.7 0.0
17/01:30pm 24.3 19.2 -2.3 17 11.7 SW 15 28 8 15 1007.5 1007.0 0.0
17/01:00pm 23.5 17.6 -0.7 20 11.0 SSW 20 28 11 15 1007.8 1007.3 0.0
17/12:30pm 22.9 16.9 -1.9 19 10.9 SSW 20 30 11 16 1007.9 1007.4 0.0
17/12:00pm 22.0 15.9 -2.0 20 10.5 SW 20 28 11 15 1008.4 1007.8 0.0
17/11:30am 21.1 15.5 -0.2 24 9.5 SW 19 28 10 15 1008.5 1007.9 0.0
17/11:00am 20.1 14.8 -0.5 25 9.1 SW 17 26 9 14 1008.7 1008.1 0.0
17/10:30am 19.4 13.7 0.4 28 8.5 SSW 20 32 11 17 1008.8 1008.2 0.0
17/10:00am 18.6 13.6 1.2 31 7.9 S 17 24 9 13 1008.9 1008.3 0.0
17/09:30am 17.2 12.5 1.2 34 7.1 S 15 22 8 12 1009.0 1008.4 0.0
17/09:00am 16.5 11.6 1.8 37 6.6 S 17 30 9 16 1009.0 1008.4 0.0
17/08:30am 16.3 11.4 2.0 38 6.4 S 17 26 9 14 1008.9 1008.3 0.0
17/08:00am 15.6 9.8 2.4 41 6.0 S 22 32 12 17 1008.5 1007.9 0.0
17/07:30am 15.1 10.2 2.0 41 5.8 SSW 17 22 9 12 1008.3 1007.7 0.0
17/07:00am 14.7 9.7 1.6 41 5.8 SSW 17 22 9 12 1007.7 1007.2 0.0
17/06:30am 14.2 9.3 1.8 43 5.4 SSW 17 20 9 11 1007.1 1006.6 0.0
17/06:00am 14.0 9.5 2.0 44 5.3 SSW 15 20 8 11 1006.8 1006.3 0.0
17/05:30am 14.4 9.8 1.3 41 5.7 S 15 20 8 11 1006.6 1006.0 0.0
17/05:00am 14.9 10.3 1.4 40 5.9 SSW 15 20 8 11 1006.4 1005.8 0.0
17/04:30am 15.3 11.1 1.4 39 6.1 SSW 13 19 7 10 1006.1 1005.5 0.0
17/04:00am 15.8 11.5 1.2 37 6.4 SW 13 19 7 10 1005.8 1005.2 0.0
17/03:30am 16.3 11.6 0.8 35 6.8 SW 15 20 8 11 1005.5 1004.9 0.0
17/03:00am 16.6 12.7 1.1 35 6.9 SW 11 19 6 10 1005.5 1004.9 0.0
17/02:30am 17.6 12.9 1.2 33 7.3 SW 15 19 8 10 1005.4 1004.8 0.0
17/02:00am 18.2 13.6 1.3 32 7.6 SSW 15 24 8 13 1005.3 1004.7 0.0
17/01:30am 18.8 13.3 1.8 32 7.8 SSW 20 30 11 16 1005.2 1004.6 0.0
17/01:00am 19.6 12.9 1.6 30 8.3 SSW 26 43 14 23 1005.3 1004.7 0.0
17/12:30am 20.4 13.3 1.3 28 8.7 SW 28 52 15 28 1005.0 1004.4 0.0
17/12:00am 21.4 15.0 3.1 30 8.8 SW 26 39 14 21 1004.7 1004.1 0.0
 
Date/Time
EDT
Temp
°C
App
Temp
°C
Dew
Point
Rel
Hum
%
Delta-T
°C
Wind Press
QNH
hPa
Press
MSL
hPa
Rain
since 9 am
mm
Dir
 
Spd
km/h
Gust
km/h
Spd
kts
Gust
kts
16/11:30pm 22.2 14.9 4.7 32 8.7 SSW 32 50 17 27 1003.9 1003.3 0.0
16/11:01pm 23.0 15.7 7.1 36 8.3 SW 35 54 19 29 1003.2 1002.6 0.0
16/11:00pm 23.1 15.8 7.2 36 8.3 SSW 35 50 19 27 1003.2 1002.6 0.0
16/10:45pm 23.4 16.6 7.9 37 8.2 SW 33 52 18 28 1002.8 1002.2 0.0
16/10:30pm 23.8 16.3 7.8 36 8.5 SSW 37 54 20 29 1002.9 1002.3 0.0
16/10:00pm 24.6 17.4 7.7 34 9.0 SSW 35 57 19 31 1001.7 1001.1 0.0
16/09:30pm 26.0 17.1 7.6 31 9.8 SW 44 57 24 31 1000.6 1000.0 0.0
16/09:23pm 26.5 16.8 7.5 30 10.2 SW 48 65 26 35 1000.1 999.5 0.0
16/09:00pm 31.5 21.1 -0.2 13 15.4 SW 44 56 24 30 998.7 998.1 0.0
16/08:34pm 33.2 25.3 1.1 13 16.0 WSW 32 52 17 28 997.8 997.2 0.0
16/08:30pm 33.3 26.2 1.2 13 16.1 WSW 28 39 15 21 997.7 997.1 0.0
16/08:00pm 34.4 28.0 0.9 12 16.9 W 24 32 13 17 997.0 996.4 0.0
16/07:36pm 34.6 27.5 1.1 12 16.9 W 28 46 15 25 996.9 996.3 0.0
16/07:30pm 34.8 26.2 0.0 11 17.3 W 35 46 19 25 996.8 996.2 0.0
16/07:00pm 35.0 26.4 0.2 11 17.5 W 35 48 19 26 996.8 996.2 0.0
16/06:30pm 35.4 25.7 0.5 11 17.5 W 41 52 22 28 996.7 996.1 0.0
16/06:00pm 36.6 27.4 -1.4 9 18.8 W 37 63 20 34 996.7 996.1 0.0

Other Formats:

Comma delimited format used in spreadsheet applications
http://www.bom.gov.au/fwo/IDN60801/IDN60801.95704.axf

JavaScript Object Notation format (JSON) in row-major order
http://www.bom.gov.au/fwo/IDN60801/IDN60801.95704.json